createdAt,value
2023-05-16T00:00:19.990Z,2.10
2023-05-16T00:02:53.905Z,2.40
2023-05-16T00:05:22.368Z,2.20
2023-05-16T00:07:52.160Z,1.83
2023-05-16T00:10:20.605Z,2.10
2023-05-16T00:12:51.526Z,2.23
2023-05-16T00:15:20.404Z,2.00
2023-05-16T00:17:50.838Z,2.23
2023-05-16T00:20:23.734Z,2.50
2023-05-16T00:22:52.195Z,2.00
2023-05-16T00:25:20.892Z,2.30
2023-05-16T00:27:50.421Z,2.00
2023-05-16T00:30:18.916Z,2.30
2023-05-16T00:32:47.274Z,2.10
2023-05-16T00:35:15.651Z,2.40
2023-05-16T00:37:46.696Z,2.10
2023-05-16T00:40:15.457Z,2.50
2023-05-16T00:42:43.910Z,2.00
2023-05-16T00:45:12.795Z,2.40
2023-05-16T00:47:50.999Z,2.07
2023-05-16T00:50:20.159Z,2.60
2023-05-16T00:52:51.091Z,2.43
2023-05-16T00:55:19.593Z,2.17
2023-05-16T00:57:47.991Z,2.10
2023-05-16T01:00:16.927Z,2.20
2023-05-16T01:02:45.638Z,2.20
2023-05-16T01:05:14.216Z,2.40
2023-05-16T01:07:42.576Z,2.37
2023-05-16T01:10:13.061Z,2.13
2023-05-16T01:13:07.548Z,2.13
2023-05-16T01:15:45.395Z,2.23
2023-05-16T01:18:24.922Z,2.27
2023-05-16T01:21:00.519Z,2.50
2023-05-16T01:23:43.220Z,2.30
2023-05-16T01:26:19.633Z,2.27
2023-05-16T01:28:49.285Z,2.43
2023-05-16T01:31:17.927Z,2.17
2023-05-16T01:33:46.329Z,2.43
2023-05-16T01:36:25.858Z,2.30
2023-05-16T01:39:08.536Z,2.53
2023-05-16T01:41:48.738Z,2.20
2023-05-16T01:44:24.720Z,2.40
2023-05-16T01:46:57.808Z,2.40
2023-05-16T01:49:32.363Z,2.53
2023-05-16T01:52:03.386Z,2.47
2023-05-16T01:54:33.398Z,2.37
2023-05-16T01:57:06.090Z,2.83
2023-05-16T01:59:35.134Z,2.60
2023-05-16T02:02:03.701Z,2.40
2023-05-16T02:04:32.058Z,2.70
2023-05-16T02:07:01.985Z,2.67
2023-05-16T02:09:39.125Z,2.47
2023-05-16T02:12:09.349Z,2.63
2023-05-16T02:14:38.201Z,2.73
2023-05-16T02:17:09.091Z,2.53
2023-05-16T02:19:37.498Z,2.37
2023-05-16T02:22:06.232Z,2.60
2023-05-16T02:24:34.948Z,2.57
2023-05-16T02:27:03.843Z,2.87
2023-05-16T02:29:33.613Z,2.57
2023-05-16T02:32:01.992Z,2.13
2023-05-16T02:34:30.442Z,2.50
2023-05-16T02:36:58.770Z,2.30
2023-05-16T02:39:27.247Z,2.13
2023-05-16T02:41:55.681Z,2.33
2023-05-16T02:44:24.057Z,2.30
2023-05-16T02:46:53.926Z,2.10
2023-05-16T02:49:22.368Z,2.40
2023-05-16T02:51:50.701Z,2.00
2023-05-16T02:54:19.872Z,2.10
2023-05-16T02:56:48.249Z,2.17
2023-05-16T02:59:16.646Z,2.37
2023-05-16T03:01:45.092Z,2.13
2023-05-16T03:04:14.912Z,2.10
2023-05-16T03:06:43.274Z,2.30
2023-05-16T03:09:11.685Z,2.20
2023-05-16T03:11:40.088Z,2.00
2023-05-16T03:14:08.432Z,1.93
2023-05-16T03:16:38.870Z,2.40
2023-05-16T03:19:07.550Z,2.20
2023-05-16T03:21:37.317Z,2.23
2023-05-16T03:24:06.488Z,2.50
2023-05-16T03:26:34.819Z,2.00
2023-05-16T03:29:03.177Z,2.03
2023-05-16T03:31:33.111Z,2.20
2023-05-16T03:34:01.480Z,2.27
2023-05-16T03:36:30.188Z,2.33
2023-05-16T03:38:59.971Z,2.27
2023-05-16T03:41:28.754Z,2.27
2023-05-16T03:43:57.052Z,2.70
2023-05-16T03:46:25.534Z,2.40
2023-05-16T03:48:55.162Z,2.60
2023-05-16T03:51:24.651Z,2.17
2023-05-16T03:53:56.036Z,2.30
2023-05-16T03:56:26.007Z,2.17
2023-05-16T03:58:55.419Z,3.00
2023-05-16T04:01:23.816Z,3.33
2023-05-16T04:03:53.365Z,2.60
2023-05-16T04:06:22.079Z,2.70
2023-05-16T04:08:50.439Z,2.20
2023-05-16T04:11:18.838Z,2.90
2023-05-16T04:13:48.649Z,2.20
2023-05-16T04:16:17.200Z,2.40
2023-05-16T04:18:45.656Z,2.43
2023-05-16T04:21:15.422Z,2.30
2023-05-16T04:23:43.815Z,2.77
2023-05-16T04:26:12.861Z,2.70
2023-05-16T04:28:41.466Z,2.50
2023-05-16T04:31:11.457Z,2.60
2023-05-16T04:33:39.847Z,2.00
2023-05-16T04:36:08.489Z,2.47
2023-05-16T04:38:36.889Z,2.57
2023-05-16T04:41:05.327Z,2.70
2023-05-16T04:43:35.182Z,2.37
2023-05-16T04:46:04.076Z,2.40
2023-05-16T04:48:33.882Z,2.17
2023-05-16T04:51:02.225Z,2.60
2023-05-16T04:53:30.618Z,2.90
2023-05-16T04:55:58.985Z,2.57
2023-05-16T04:58:27.376Z,2.37
2023-05-16T05:00:56.855Z,2.50
2023-05-16T05:03:25.264Z,2.20
2023-05-16T05:05:55.519Z,2.60
2023-05-16T05:08:23.908Z,2.70
2023-05-16T05:10:52.259Z,2.53
2023-05-16T05:13:20.956Z,2.50
2023-05-16T05:15:50.432Z,2.70
2023-05-16T05:18:19.174Z,2.60
2023-05-16T05:20:47.850Z,2.80
2023-05-16T05:23:18.106Z,2.63
2023-05-16T05:25:46.428Z,2.90
2023-05-16T05:28:18.296Z,2.90
2023-05-16T05:30:46.790Z,2.87
2023-05-16T05:33:18.057Z,2.90
2023-05-16T05:35:46.520Z,2.60
2023-05-16T05:38:14.867Z,2.70
2023-05-16T05:40:44.563Z,2.93
2023-05-16T05:43:13.129Z,2.60
2023-05-16T05:45:41.721Z,3.00
2023-05-16T05:48:10.922Z,2.73
2023-05-16T05:50:39.574Z,2.90
2023-05-16T05:53:07.938Z,2.70
2023-05-16T05:55:36.285Z,2.77
2023-05-16T05:58:07.328Z,3.00
2023-05-16T06:00:36.107Z,2.80
2023-05-16T06:03:04.897Z,2.70
2023-05-16T06:05:33.463Z,2.97
2023-05-16T06:08:01.800Z,2.87
2023-05-16T06:10:30.174Z,2.87
2023-05-16T06:12:58.639Z,2.90
2023-05-16T06:15:28.644Z,3.00
2023-05-16T06:17:58.119Z,3.00
2023-05-16T06:20:26.722Z,3.70
2023-05-16T06:22:57.252Z,3.00
2023-05-16T06:25:25.802Z,3.10
2023-05-16T06:27:55.528Z,3.57
2023-05-16T06:30:23.900Z,3.20
2023-05-16T06:32:54.518Z,3.33
2023-05-16T06:35:23.280Z,3.37
2023-05-16T06:38:01.588Z,3.53
2023-05-16T06:40:30.053Z,3.80
2023-05-16T06:42:58.704Z,3.90
2023-05-16T06:45:27.312Z,4.80
2023-05-16T06:48:00.178Z,4.30
2023-05-16T06:50:28.565Z,4.53
2023-05-16T06:52:57.450Z,4.50
2023-05-16T06:55:26.076Z,4.50
2023-05-16T06:57:55.917Z,4.40
2023-05-16T07:00:24.613Z,5.00
2023-05-16T07:03:00.302Z,4.77
2023-05-16T07:05:28.947Z,5.00
2023-05-16T07:07:57.699Z,4.83
2023-05-16T07:10:27.328Z,5.20
2023-05-16T07:12:58.329Z,5.37
2023-05-16T07:15:27.114Z,5.67
2023-05-16T07:17:57.356Z,5.43
2023-05-16T07:20:27.354Z,5.43
2023-05-16T07:22:58.519Z,5.53
2023-05-16T07:25:27.238Z,5.17
2023-05-16T07:27:57.439Z,5.63
2023-05-16T07:30:25.920Z,5.87
2023-05-16T07:32:55.099Z,5.60
2023-05-16T07:35:23.583Z,5.60
2023-05-16T07:37:53.813Z,5.70
2023-05-16T07:40:28.454Z,5.87
2023-05-16T07:42:58.432Z,5.50
2023-05-16T07:45:27.111Z,6.10
2023-05-16T07:47:56.588Z,6.70
2023-05-16T07:50:25.263Z,7.20
2023-05-16T07:52:55.881Z,6.33
2023-05-16T07:55:24.483Z,6.40
2023-05-16T07:57:53.238Z,6.20
2023-05-16T08:00:22.270Z,6.90
2023-05-16T08:02:52.030Z,6.40
2023-05-16T08:05:20.604Z,6.23
2023-05-16T08:07:49.002Z,6.37
2023-05-16T08:10:18.820Z,6.77
2023-05-16T08:12:48.400Z,6.43
2023-05-16T08:15:17.010Z,6.17
2023-05-16T08:17:45.487Z,5.53
2023-05-16T08:20:19.876Z,6.40
2023-05-16T08:22:48.260Z,5.93
2023-05-16T08:25:18.018Z,5.43
2023-05-16T08:27:47.096Z,5.83
2023-05-16T08:30:15.908Z,6.13
2023-05-16T08:32:44.629Z,6.97
2023-05-16T08:35:13.529Z,6.20
2023-05-16T08:37:44.794Z,6.73
2023-05-16T08:40:15.466Z,11.03
2023-05-16T08:42:45.544Z,9.10
2023-05-16T08:45:14.605Z,6.60
2023-05-16T08:47:45.286Z,6.37
2023-05-16T08:50:14.920Z,7.30
2023-05-16T08:52:45.517Z,6.50
2023-05-16T08:55:16.565Z,6.60
2023-05-16T08:57:46.842Z,8.13
2023-05-16T09:00:21.825Z,6.30
2023-05-16T09:02:57.683Z,6.50
2023-05-16T09:05:27.285Z,6.73
2023-05-16T09:07:56.898Z,6.90
2023-05-16T09:10:25.453Z,7.13
2023-05-16T09:12:55.237Z,7.57
2023-05-16T09:15:23.732Z,8.10
2023-05-16T09:17:52.666Z,7.10
2023-05-16T09:20:21.864Z,11.00
2023-05-16T09:22:59.145Z,9.60
2023-05-16T09:25:31.531Z,7.03
2023-05-16T09:28:03.385Z,10.47
2023-05-16T09:30:34.566Z,8.00
2023-05-16T09:33:03.606Z,9.33
2023-05-16T09:38:04.084Z,8.33
2023-05-16T09:40:32.530Z,9.17
2023-05-16T09:43:06.926Z,8.60
2023-05-16T09:45:36.928Z,10.70
2023-05-16T09:48:06.971Z,11.03
2023-05-16T09:50:36.388Z,7.40
2023-05-16T09:53:05.727Z,8.20
2023-05-16T09:55:34.530Z,8.20
2023-05-16T09:58:03.182Z,7.00
2023-05-16T10:00:35.196Z,8.23
2023-05-16T10:03:13.970Z,6.73
2023-05-16T10:05:42.718Z,6.67
2023-05-16T10:08:12.653Z,10.23
2023-05-16T10:10:41.478Z,9.33
2023-05-16T10:13:10.878Z,8.90
2023-05-16T10:15:41.197Z,8.13
2023-05-16T10:18:13.487Z,10.37
2023-05-16T10:20:44.111Z,7.43
2023-05-16T10:23:18.437Z,8.43
2023-05-16T10:25:48.260Z,7.37
2023-05-16T10:28:17.419Z,8.53
2023-05-16T10:30:48.318Z,7.60
2023-05-16T10:33:18.508Z,9.47
2023-05-16T10:35:48.005Z,8.13
2023-05-16T10:38:18.985Z,7.70
2023-05-16T10:40:48.849Z,7.67
2023-05-16T10:43:25.758Z,7.00
2023-05-16T10:46:00.837Z,7.07
2023-05-16T10:48:33.159Z,8.83
2023-05-16T10:51:03.213Z,7.03
2023-05-16T10:53:33.442Z,8.73
2023-05-16T10:56:10.229Z,7.63
2023-05-16T10:58:46.202Z,8.13
2023-05-16T11:01:24.552Z,18.17
2023-05-16T11:04:12.462Z,15.53
2023-05-16T11:06:51.401Z,8.47
2023-05-16T11:09:26.579Z,9.87
2023-05-16T11:12:06.526Z,10.03
2023-05-16T11:14:42.247Z,7.97
2023-05-16T11:17:16.533Z,11.17
2023-05-16T11:19:46.482Z,9.50
2023-05-16T11:22:24.018Z,9.67
2023-05-16T11:24:56.232Z,8.93
2023-05-16T11:27:27.424Z,8.50
2023-05-16T11:30:01.094Z,8.13
2023-05-16T11:32:35.699Z,8.70
2023-05-16T11:35:05.675Z,8.43
2023-05-16T11:37:37.842Z,8.70
2023-05-16T11:40:08.694Z,9.13
2023-05-16T11:42:39.368Z,9.40
2023-05-16T11:45:10.364Z,10.20
2023-05-16T11:47:41.413Z,10.47
2023-05-16T11:50:14.364Z,9.97
2023-05-16T11:52:45.960Z,9.93
2023-05-16T11:55:21.414Z,8.77
2023-05-16T11:57:53.965Z,9.30
2023-05-16T12:00:24.464Z,9.00
2023-05-16T12:02:55.982Z,10.27
2023-05-16T12:05:28.458Z,10.37
2023-05-16T12:07:58.828Z,11.27
2023-05-16T12:10:27.643Z,10.53
2023-05-16T12:12:57.540Z,10.83
2023-05-16T12:15:26.662Z,10.37
2023-05-16T12:17:57.101Z,9.90
2023-05-16T12:20:26.307Z,11.13
2023-05-16T12:22:54.911Z,10.30
2023-05-16T12:25:25.360Z,11.13
2023-05-16T12:27:55.244Z,12.13
2023-05-16T12:30:25.543Z,11.67
2023-05-16T12:32:58.945Z,9.97
2023-05-16T12:35:32.218Z,9.37
2023-05-16T12:38:01.282Z,9.40
2023-05-16T12:40:31.171Z,10.00
2023-05-16T12:43:01.239Z,9.97
2023-05-16T12:45:30.039Z,14.97
2023-05-16T12:48:06.783Z,9.10
2023-05-16T12:50:39.677Z,9.80
2023-05-16T12:53:13.718Z,9.83
2023-05-16T12:55:42.743Z,8.87
2023-05-16T12:58:12.032Z,9.97
2023-05-16T13:00:40.566Z,16.90
2023-05-16T13:03:10.660Z,11.73
2023-05-16T13:05:39.293Z,10.20
2023-05-16T13:08:08.527Z,10.27
2023-05-16T13:10:37.186Z,10.80
2023-05-16T13:13:06.957Z,10.07
2023-05-16T13:15:35.725Z,9.73
2023-05-16T13:18:04.380Z,9.93
2023-05-16T13:20:34.257Z,10.83
2023-05-16T13:23:02.821Z,11.43
2023-05-16T13:25:31.200Z,11.43
2023-05-16T13:28:00.112Z,11.03
2023-05-16T13:30:29.042Z,11.13
2023-05-16T13:32:59.640Z,12.27
2023-05-16T13:35:28.542Z,12.27
2023-05-16T13:37:58.658Z,12.57
2023-05-16T13:40:27.866Z,13.07
2023-05-16T13:42:56.681Z,12.40
2023-05-16T13:45:25.364Z,12.73
2023-05-16T13:47:53.847Z,12.93
2023-05-16T13:50:22.334Z,12.53
2023-05-16T13:52:50.813Z,12.20
2023-05-16T13:55:20.700Z,12.33
2023-05-16T13:58:00.211Z,12.50
2023-05-16T14:00:43.389Z,12.23
2023-05-16T14:03:14.141Z,11.17
2023-05-16T14:05:42.954Z,12.47
2023-05-16T14:08:11.391Z,8.20
2023-05-16T14:10:41.152Z,4.80
2023-05-16T14:13:09.637Z,4.87
2023-05-16T14:15:38.050Z,4.20
2023-05-16T14:18:07.635Z,3.73
2023-05-16T14:20:36.266Z,4.03
2023-05-16T14:23:04.669Z,4.30
2023-05-16T14:25:33.364Z,4.03
2023-05-16T14:28:04.836Z,3.93
2023-05-16T14:30:33.308Z,3.93
2023-05-16T14:33:03.525Z,4.77
2023-05-16T14:35:32.226Z,4.47
2023-05-16T14:38:03.838Z,4.60
2023-05-16T14:40:32.276Z,3.37
2023-05-16T14:43:04.352Z,4.00
2023-05-16T14:45:34.753Z,4.30
2023-05-16T14:48:03.894Z,4.87
2023-05-16T14:50:35.449Z,4.33
2023-05-16T14:53:04.472Z,5.30
2023-05-16T14:55:32.878Z,5.10
2023-05-16T14:58:02.567Z,4.40
2023-05-16T15:00:32.179Z,5.47
2023-05-16T15:03:04.348Z,5.20
2023-05-16T15:05:33.083Z,5.13
2023-05-16T15:08:03.102Z,5.90
2023-05-16T15:10:31.652Z,5.03
2023-05-16T15:13:01.125Z,5.60
2023-05-16T15:15:29.603Z,5.80
2023-05-16T15:17:58.066Z,5.60
2023-05-16T15:20:28.277Z,5.60
2023-05-16T15:22:57.021Z,6.60
2023-05-16T15:25:25.957Z,7.57
2023-05-16T15:27:54.429Z,6.50
2023-05-16T15:30:23.063Z,5.70
2023-05-16T15:32:51.521Z,6.13
2023-05-16T15:35:20.122Z,6.20
2023-05-16T15:37:50.873Z,5.57
2023-05-16T15:40:21.320Z,5.23
2023-05-16T15:42:51.835Z,5.90
2023-05-16T15:45:21.112Z,6.40
2023-05-16T15:47:49.578Z,5.83
2023-05-16T15:50:18.042Z,5.37
2023-05-16T15:52:46.522Z,5.10
2023-05-16T15:55:16.533Z,4.90
2023-05-16T15:57:45.012Z,5.00
2023-05-16T16:00:14.677Z,5.57
2023-05-16T16:02:45.248Z,6.10
2023-05-16T16:05:13.834Z,5.90
2023-05-16T16:07:42.398Z,5.70
2023-05-16T16:10:12.375Z,5.07
2023-05-16T16:12:42.227Z,4.83
2023-05-16T16:15:11.873Z,4.23
2023-05-16T16:17:40.338Z,4.60
2023-05-16T16:20:09.385Z,5.33
2023-05-16T16:22:37.792Z,8.50
2023-05-16T16:25:07.361Z,5.83
2023-05-16T16:27:35.978Z,5.07
2023-05-16T16:30:06.684Z,4.30
2023-05-16T16:32:35.153Z,4.50
2023-05-16T16:35:05.471Z,5.17
2023-05-16T16:37:34.347Z,4.50
2023-05-16T16:40:05.158Z,4.43
2023-05-16T16:42:33.532Z,4.63
2023-05-16T16:45:03.372Z,5.13
2023-05-16T16:47:33.522Z,5.00
2023-05-16T16:50:02.851Z,4.87
2023-05-16T16:52:33.490Z,5.50
2023-05-16T16:55:02.818Z,7.37
2023-05-16T16:57:31.316Z,7.40
2023-05-16T17:00:00.444Z,7.50
2023-05-16T17:02:29.261Z,6.97
2023-05-16T17:04:59.079Z,6.47
2023-05-16T17:07:27.490Z,6.00
2023-05-16T17:09:56.553Z,5.60
2023-05-16T17:12:28.411Z,5.30
2023-05-16T17:14:57.256Z,5.10
2023-05-16T17:17:27.262Z,6.70
2023-05-16T17:19:55.771Z,6.90
2023-05-16T17:22:25.857Z,7.17
2023-05-16T17:24:54.285Z,5.80
2023-05-16T17:27:22.929Z,6.07
2023-05-16T17:29:51.362Z,7.17
2023-05-16T17:32:21.407Z,6.40
2023-05-16T17:34:50.071Z,5.90
2023-05-16T17:37:18.498Z,5.87
2023-05-16T17:39:48.300Z,5.60
2023-05-16T17:42:16.774Z,5.90
2023-05-16T17:44:45.766Z,6.37
2023-05-16T17:47:14.260Z,6.53
2023-05-16T17:49:42.744Z,5.90
2023-05-16T17:52:11.240Z,5.80
2023-05-16T17:54:39.790Z,6.50
2023-05-16T17:57:09.630Z,6.07
2023-05-16T17:59:41.944Z,5.87
2023-05-16T18:02:15.137Z,6.00
2023-05-16T18:04:43.758Z,5.60
2023-05-16T18:07:12.737Z,5.27
2023-05-16T18:09:41.151Z,6.03
2023-05-16T18:12:11.423Z,5.40
2023-05-16T18:14:40.137Z,5.20
2023-05-16T18:17:09.376Z,5.57
2023-05-16T18:19:38.063Z,5.97
2023-05-16T18:22:08.665Z,5.57
2023-05-16T18:24:37.596Z,6.03
2023-05-16T18:27:06.476Z,6.23
2023-05-16T18:29:36.320Z,6.17
2023-05-16T18:32:06.594Z,6.60
2023-05-16T18:34:35.202Z,6.13
2023-05-16T18:37:04.855Z,6.93
2023-05-16T18:39:33.545Z,6.67
2023-05-16T18:42:02.118Z,7.73
2023-05-16T18:44:30.588Z,7.50
2023-05-16T18:47:00.490Z,7.23
2023-05-16T18:49:29.140Z,7.67
2023-05-16T18:51:57.624Z,7.07
2023-05-16T18:54:26.121Z,6.30
2023-05-16T18:56:54.632Z,7.03
2023-05-16T18:59:23.071Z,6.40
2023-05-16T19:01:51.651Z,6.47
2023-05-16T19:04:21.598Z,6.60
2023-05-16T19:06:50.623Z,6.77
2023-05-16T19:09:19.499Z,6.90
2023-05-16T19:11:48.001Z,7.00
2023-05-16T19:14:16.478Z,6.67
2023-05-16T19:16:44.962Z,7.23
2023-05-16T19:19:13.930Z,7.50
2023-05-16T19:21:43.908Z,7.20
2023-05-16T19:24:12.372Z,6.93
2023-05-16T19:26:41.196Z,7.63
2023-05-16T19:29:10.719Z,7.63
2023-05-16T19:31:39.137Z,7.60
2023-05-16T19:34:08.365Z,7.73
2023-05-16T19:36:37.417Z,8.03
2023-05-16T19:39:07.537Z,8.67
2023-05-16T19:41:36.714Z,7.83
2023-05-16T19:44:06.683Z,8.77
2023-05-16T19:46:35.213Z,9.30
2023-05-16T19:49:06.328Z,10.10
2023-05-16T19:51:41.931Z,9.63
2023-05-16T19:54:12.167Z,8.97
2023-05-16T19:56:40.550Z,9.80
2023-05-16T19:59:08.936Z,9.47
2023-05-16T20:01:37.373Z,10.07
2023-05-16T20:04:07.289Z,9.70
2023-05-16T20:06:36.566Z,9.73
2023-05-16T20:09:07.304Z,10.30
2023-05-16T20:11:37.676Z,10.50
2023-05-16T20:14:07.501Z,10.03
2023-05-16T20:16:36.238Z,10.13
2023-05-16T20:19:08.225Z,9.77
2023-05-16T20:21:36.912Z,9.70
2023-05-16T20:24:07.359Z,9.10
2023-05-16T20:26:37.234Z,9.47
2023-05-16T20:29:07.162Z,8.70
2023-05-16T20:31:35.629Z,9.17
2023-05-16T20:34:06.604Z,9.67
2023-05-16T20:36:35.044Z,9.10
2023-05-16T20:39:04.785Z,9.03
2023-05-16T20:41:33.255Z,8.97
2023-05-16T20:44:03.074Z,7.97
2023-05-16T20:46:31.924Z,7.60
2023-05-16T20:49:00.503Z,7.33
2023-05-16T20:51:29.047Z,7.50
2023-05-16T20:53:57.876Z,7.93
2023-05-16T20:56:27.565Z,7.43
2023-05-16T20:58:56.653Z,7.13
2023-05-16T21:01:27.751Z,7.00
2023-05-16T21:03:56.541Z,7.50
2023-05-16T21:06:24.961Z,6.87
2023-05-16T21:08:53.425Z,6.87
2023-05-16T21:11:21.955Z,6.87
2023-05-16T21:13:50.821Z,7.10
2023-05-16T21:16:19.406Z,6.60
2023-05-16T21:18:49.442Z,6.40
2023-05-16T21:21:18.204Z,6.90
2023-05-16T21:23:46.617Z,6.53
2023-05-16T21:26:15.249Z,6.27
2023-05-16T21:28:54.371Z,7.00
2023-05-16T21:31:24.556Z,6.73
2023-05-16T21:33:55.293Z,6.47
2023-05-16T21:36:25.785Z,5.93
2023-05-16T21:38:55.829Z,6.43
2023-05-16T21:41:26.841Z,6.27
2023-05-16T21:43:55.623Z,5.90
2023-05-16T21:46:25.022Z,6.03
2023-05-16T21:48:55.349Z,5.83
2023-05-16T21:51:28.737Z,5.77
2023-05-16T21:53:57.295Z,6.13
2023-05-16T21:56:27.620Z,5.87
2023-05-16T21:58:57.850Z,6.17
2023-05-16T22:01:26.489Z,5.80
2023-05-16T22:03:56.815Z,5.63
2023-05-16T22:06:25.481Z,5.33
2023-05-16T22:08:54.999Z,5.13
2023-05-16T22:11:23.514Z,5.70
2023-05-16T22:13:51.983Z,6.47
2023-05-16T22:16:20.462Z,5.37
2023-05-16T22:18:49.089Z,5.77
2023-05-16T22:21:20.228Z,5.70
2023-05-16T22:23:48.625Z,5.60
2023-05-16T22:26:16.995Z,5.53
2023-05-16T22:28:45.480Z,4.70
2023-05-16T22:31:13.939Z,5.50
2023-05-16T22:33:42.402Z,5.60
2023-05-16T22:36:11.061Z,5.57
2023-05-16T22:38:40.852Z,5.43
2023-05-16T22:41:09.196Z,5.57
2023-05-16T22:43:38.394Z,5.37
2023-05-16T22:46:08.935Z,4.97
2023-05-16T22:48:37.411Z,5.30
2023-05-16T22:51:09.230Z,5.50
2023-05-16T22:53:37.667Z,5.30
2023-05-16T22:56:10.081Z,5.23
2023-05-16T22:58:38.519Z,5.30
2023-05-16T23:01:08.544Z,5.67
2023-05-16T23:03:37.131Z,5.47
2023-05-16T23:06:06.759Z,5.30
2023-05-16T23:08:40.793Z,5.33
2023-05-16T23:11:10.546Z,5.00
2023-05-16T23:13:39.702Z,5.40
2023-05-16T23:16:09.452Z,4.83
2023-05-16T23:18:37.960Z,4.90
2023-05-16T23:21:07.097Z,4.80
2023-05-16T23:23:35.496Z,4.80
2023-05-16T23:26:03.924Z,4.57
2023-05-16T23:28:33.794Z,4.30
2023-05-16T23:31:02.131Z,4.77
2023-05-16T23:33:30.989Z,4.43
2023-05-16T23:35:59.420Z,4.93
2023-05-16T23:38:27.791Z,4.93
2023-05-16T23:40:56.201Z,4.50
2023-05-16T23:43:24.650Z,4.20
2023-05-16T23:45:54.396Z,4.53
2023-05-16T23:48:22.942Z,4.03
2023-05-16T23:50:51.712Z,5.07
2023-05-16T23:53:21.087Z,4.27
2023-05-16T23:55:49.425Z,4.23
2023-05-16T23:58:17.887Z,4.13
